Time;durP1;ratioP1;P1;durP2;ratioP2;P2;SDS_P1;SDS_P2;PMS_P1;PMS_P2;Temp;Humidity;BMP_temperature;BMP_pressure;BME280_temperature;BME280_humidity;BME280_pressure;Samples;Min_cycle;Max_cycle;Signal;HPM_P1;HPM_P2
2023/08/18 00:00:14;;;;;;;0.40;0.40;;;;;;;19.69;84.66;96920.31;29396;209;63009;-89
2023/08/18 00:00:48;;;;;;;0.40;0.40;;;;;;;19.65;85.05;96922.16;29396;207;63005;-90
2023/08/18 00:01:22;;;;;;;0.37;0.37;;;;;;;19.65;84.65;96927.66;29396;206;63009;-90
2023/08/18 00:01:55;;;;;;;0.40;0.40;;;;;;;19.64;85.38;96917.78;29396;244;63005;-90
2023/08/18 00:02:28;;;;;;;0.40;0.40;;;;;;;19.64;85.54;96926.84;29396;218;63009;-90
2023/08/18 00:03:01;;;;;;;1.05;1.05;;;;;;;19.66;85.35;96921.00;29396;198;63005;-91
2023/08/18 00:03:33;;;;;;;0.40;0.40;;;;;;;19.67;84.85;96922.59;29395;278;64009;-90
2023/08/18 00:04:06;;;;;;;0.40;0.40;;;;;;;19.68;85.06;96924.22;29396;281;63005;-90
2023/08/18 00:04:37;;;;;;;0.40;0.40;;;;;;;19.68;84.22;96926.97;29396;289;63009;-90
2023/08/18 00:05:09;;;;;;;0.40;0.40;;;;;;;19.68;84.33;96924.22;29396;203;63004;-92
2023/08/18 00:05:42;;;;;;;0.40;0.40;;;;;;;19.68;84.34;96921.44;29397;243;63009;-92
2023/08/18 00:06:13;;;;;;;0.40;0.40;;;;;;;19.65;84.55;96922.16;29397;208;63004;-92
2023/08/18 00:06:47;;;;;;;0.30;0.30;;;;;;;19.63;84.38;96921.69;29397;305;63009;-92
2023/08/18 00:07:20;;;;;;;0.30;0.30;;;;;;;19.62;84.47;96917.34;29397;237;63004;-92
2023/08/18 00:07:51;;;;;;;0.40;0.40;;;;;;;19.64;84.22;96920.56;29397;282;63009;-91
2023/08/18 00:08:32;;;;;;;0.40;0.40;;;;;;;19.63;84.51;96921.69;29396;222;64005;-90
2023/08/18 00:09:05;;;;;;;0.40;0.40;;;;;;;19.61;84.31;96918.50;29419;225;63009;-92
2023/08/18 00:09:38;;;;;;;0.35;0.35;;;;;;;19.63;84.98;96918.94;29397;226;63005;-92
2023/08/18 00:10:12;;;;;;;0.40;0.40;;;;;;;19.61;84.50;96913.78;29397;240;63009;-91
2023/08/18 00:10:49;;;;;;;0.40;0.40;;;;;;;19.64;84.37;96917.78;29397;198;63005;-90
2023/08/18 00:11:22;;;;;;;0.40;0.40;;;;;;;19.65;84.06;96913.91;29397;240;63009;-90
2023/08/18 00:11:53;;;;;;;0.37;0.37;;;;;;;19.65;84.34;96913.91;29397;226;63004;-91
2023/08/18 00:12:27;;;;;;;0.40;0.40;;;;;;;19.64;84.00;96917.78;29397;219;63009;-92
2023/08/18 00:13:03;;;;;;;0.40;0.40;;;;;;;19.62;84.44;96909.88;29397;227;63004;-93
2023/08/18 00:13:37;;;;;;;0.40;0.40;;;;;;;19.62;84.33;96920.09;29396;255;64009;-92
2023/08/18 00:14:10;;;;;;;0.40;0.40;;;;;;;19.63;84.32;96916.19;29397;220;63004;-90
2023/08/18 00:15:03;;;;;;;0.40;0.40;;;;;;;19.60;84.33;96916.88;29397;253;63008;-93
2023/08/18 00:15:38;;;;;;;0.40;0.40;;;;;;;19.59;84.50;96923.53;29397;202;63005;-90
2023/08/18 00:16:09;;;;;;;0.40;0.40;;;;;;;19.56;85.05;96916.78;29396;232;63009;-92
2023/08/18 00:16:48;;;;;;;0.40;0.40;;;;;;;19.54;85.19;96918.28;29397;203;63005;-91
2023/08/18 00:17:23;;;;;;;0.30;0.30;;;;;;;19.55;84.72;96914.37;29397;239;63009;-90
2023/08/18 00:17:59;;;;;;;0.40;0.40;;;;;;;19.51;84.58;96907.97;29397;218;63005;-93
2023/08/18 00:18:33;;;;;;;0.40;0.40;;;;;;;19.53;84.44;96913.94;29395;228;64009;-90
2023/08/18 00:19:07;;;;;;;0.40;0.40;;;;;;;19.51;85.36;96913.47;29397;203;63005;-91
2023/08/18 00:19:44;;;;;;;0.40;0.40;;;;;;;19.49;85.09;96907.50;29396;239;63009;-91
2023/08/18 00:20:24;;;;;;;0.40;0.40;;;;;;;19.46;85.56;96917.25;29396;219;63004;-88
2023/08/18 00:21:07;;;;;;;0.40;0.40;;;;;;;19.43;85.63;96913.25;29396;257;63009;-90
2023/08/18 00:21:40;;;;;;;0.40;0.40;;;;;;;19.42;85.52;96910.84;29395;236;64004;-91
2023/08/18 00:22:14;;;;;;;0.40;0.40;;;;;;;19.43;85.16;96905.00;29396;202;63008;-89
2023/08/18 00:22:45;;;;;;;0.40;0.40;;;;;;;19.43;85.44;96907.75;29396;213;63005;-89
2023/08/18 00:23:19;;;;;;;0.40;0.40;;;;;;;19.45;85.36;96914.84;29396;255;63009;-92
2023/08/18 00:23:51;;;;;;;0.40;0.40;;;;;;;19.43;85.57;96907.75;29396;242;63007;-91
2023/08/18 00:24:24;;;;;;;0.37;0.37;;;;;;;19.42;85.46;96911.63;29396;234;63009;-90
2023/08/18 00:24:56;;;;;;;0.40;0.40;;;;;;;19.41;85.64;96900.97;29396;197;63005;-92
2023/08/18 00:25:31;;;;;;;0.40;0.40;;;;;;;19.45;85.18;96906.59;29396;279;63009;-90
2023/08/18 00:26:05;;;;;;;0.40;0.40;;;;;;;19.46;84.67;96905.44;29395;207;64005;-91
2023/08/18 00:26:38;;;;;;;0.30;0.30;;;;;;;19.45;85.01;96909.34;29395;196;64009;-89
2023/08/18 00:27:09;;;;;;;0.40;0.40;;;;;;;19.43;85.40;96902.22;29396;213;63004;-90
2023/08/18 00:27:40;;;;;;;0.37;0.37;;;;;;;19.46;84.65;96905.44;29396;206;63009;-91
2023/08/18 00:28:14;;;;;;;0.40;0.40;;;;;;;19.45;84.84;96903.84;29396;210;63004;-90
2023/08/18 00:28:46;;;;;;;0.40;0.40;;;;;;;19.43;85.04;96909.69;29396;319;63009;-90
2023/08/18 00:29:19;;;;;;;0.40;0.40;;;;;;;19.40;85.59;96908.44;29396;243;63004;-90
2023/08/18 00:29:52;;;;;;;0.40;0.40;;;;;;;19.38;85.45;96897.00;29395;256;64008;-90
2023/08/18 00:30:24;;;;;;;0.50;0.50;;;;;;;19.36;85.51;96902.06;29396;222;63005;-90
2023/08/18 00:31:02;;;;;;;0.30;0.30;;;;;;;19.36;85.04;96904.81;29396;210;63009;-91
2023/08/18 00:31:37;;;;;;;0.43;0.43;;;;;;;19.38;85.28;96905.25;29396;233;63005;-89
2023/08/18 00:32:10;;;;;;;0.40;0.40;;;;;;;19.38;85.00;96905.25;29396;249;63009;-90
2023/08/18 00:32:44;;;;;;;0.40;0.40;;;;;;;19.38;84.84;96905.25;29396;199;63005;-92
2023/08/18 00:33:23;;;;;;;0.40;0.40;;;;;;;19.36;84.86;96899.31;29396;225;63009;-91
2023/08/18 00:33:54;;;;;;;0.70;0.70;;;;;;;19.39;84.62;96906.87;29395;267;64005;-92
2023/08/18 00:34:31;;;;;;;0.40;0.40;;;;;;;19.41;84.81;96903.72;29396;299;63009;-90
2023/08/18 00:35:09;;;;;;;0.40;0.40;;;;;;;19.41;84.83;96903.72;29396;258;63004;-93
2023/08/18 00:35:50;;;;;;;0.43;0.43;;;;;;;19.40;84.43;96900.19;29396;226;63009;-91
2023/08/18 00:36:25;;;;;;;0.40;0.40;;;;;;;19.39;84.56;96906.87;29395;202;64004;-91
2023/08/18 00:36:59;;;;;;;0.40;0.40;;;;;;;19.38;84.63;96898.97;29396;201;63008;-92
2023/08/18 00:37:31;;;;;;;0.40;0.40;;;;;;;19.38;84.30;96902.50;29395;263;64004;-92
2023/08/18 00:38:22;;;;;;;0.40;0.40;;;;;;;19.39;84.46;96900.56;29396;252;63009;-92
2023/08/18 00:38:58;;;;;;;0.40;0.40;;;;;;;19.38;85.00;96902.50;29418;202;63005;-92
2023/08/18 00:39:29;;;;;;;0.40;0.40;;;;;;;19.37;84.52;96903.66;29396;197;63009;-92
2023/08/18 00:40:02;;;;;;;0.40;0.40;;;;;;;19.38;84.75;96908.00;29396;230;63005;-92
2023/08/18 00:40:38;;;;;;;0.40;0.40;;;;;;;19.36;84.27;96904.81;29396;213;63009;-92
2023/08/18 00:41:36;;;;;;;0.40;0.40;;;;;;;19.35;84.49;96903.19;29395;245;64005;-92
2023/08/18 00:42:26;;;;;;;0.40;0.40;;;;;;;19.35;84.85;96903.19;29396;221;63009;-90
2023/08/18 00:42:57;;;;;;;0.40;0.40;;;;;;;19.35;85.02;96905.16;29396;249;63004;-90
2023/08/18 00:43:31;;;;;;;0.40;0.40;;;;;;;19.35;84.79;96905.97;29396;208;63009;-90
2023/08/18 00:44:13;;;;;;;0.40;0.40;;;;;;;19.34;85.20;96909.84;29396;204;63004;-92
2023/08/18 00:44:44;;;;;;;0.40;0.40;;;;;;;19.33;85.09;96905.50;29396;216;63008;-90
2023/08/18 00:45:17;;;;;;;0.40;0.40;;;;;;;19.34;84.74;96898.06;29396;206;63004;-92
2023/08/18 00:45:55;;;;;;;0.40;0.40;;;;;;;19.36;84.71;96895.75;29396;230;63009;-92
2023/08/18 00:46:30;;;;;;;0.40;0.40;;;;;;;19.36;84.79;96893.00;29395;240;64005;-90
2023/08/18 00:47:07;;;;;;;0.40;0.40;;;;;;;19.30;84.60;96891.63;29396;206;63009;-89
2023/08/18 00:47:44;;;;;;;0.40;0.40;;;;;;;19.36;84.59;96901.25;29396;237;63005;-94
2023/08/18 00:48:24;;;;;;;0.40;0.40;;;;;;;19.37;84.33;96895.41;29396;212;63014;-89
2023/08/18 00:49:04;;;;;;;0.40;0.40;;;;;;;19.36;84.43;96899.31;29396;227;63004;-91
2023/08/18 00:49:38;;;;;;;0.40;0.40;;;;;;;19.34;84.79;96898.84;29417;203;64009;-91
2023/08/18 00:50:21;;;;;;;0.40;0.40;;;;;;;19.33;84.96;96896.44;29396;230;63004;-90
2023/08/18 00:51:00;;;;;;;0.40;0.40;;;;;;;19.31;84.61;96890.50;29396;200;63009;-92
2023/08/18 00:51:51;;;;;;;0.40;0.40;;;;;;;19.28;85.07;96894.75;29396;222;63004;-90
2023/08/18 00:52:26;;;;;;;0.30;0.30;;;;;;;19.27;84.90;96901.38;29418;234;63008;-88
2023/08/18 00:53:02;;;;;;;0.40;0.40;;;;;;;19.27;84.98;96897.84;29395;235;64005;-91
2023/08/18 00:53:41;;;;;;;0.40;0.40;;;;;;;19.25;84.84;96894.62;29396;242;63009;-93
2023/08/18 00:54:19;;;;;;;0.40;0.40;;;;;;;19.25;85.20;96900.13;29396;206;63005;-91
2023/08/18 00:55:17;;;;;;;0.40;0.40;;;;;;;19.23;84.93;96896.94;29396;202;63009;-91
2023/08/18 00:55:58;;;;;;;0.40;0.40;;;;;;;19.22;85.22;96898.87;29396;203;63005;-91
2023/08/18 00:56:31;;;;;;;0.40;0.40;;;;;;;19.22;85.55;96889.81;29395;206;64009;-89
2023/08/18 00:57:04;;;;;;;0.40;0.40;;;;;;;19.20;85.18;96898.44;29396;224;63000;-92
2023/08/18 00:57:40;;;;;;;0.40;0.40;;;;;;;19.20;84.97;96892.94;29395;244;64009;-88
2023/08/18 00:58:13;;;;;;;0.40;0.40;;;;;;;19.21;84.78;96893.72;29396;223;63004;-91
2023/08/18 00:58:54;;;;;;;0.40;0.40;;;;;;;19.21;84.68;96894.53;29480;261;125008;-90
2023/08/18 00:59:29;;;;;;;0.40;0.40;;;;;;;19.20;84.52;96892.94;29375;257;63004;-91
2023/08/18 01:00:09;;;;;;;0.40;0.40;;;;;;;19.19;84.53;96896.03;29396;236;63009;-91
2023/08/18 01:01:03;;;;;;;0.40;0.40;;;;;;;19.17;84.35;96896.38;29396;222;63005;-91
2023/08/18 01:01:45;;;;;;;0.40;0.40;;;;;;;19.17;84.63;96898.31;29419;208;63009;-93
2023/08/18 01:02:19;;;;;;;0.35;0.35;;;;;;;19.18;84.49;96903.47;29396;203;63005;-91
2023/08/18 01:02:53;;;;;;;1.20;1.12;;;;;;;19.21;83.78;96899.22;29395;241;64009;-90
2023/08/18 01:03:26;;;;;;;0.40;0.40;;;;;;;19.21;83.83;96905.53;29395;209;64005;-92
2023/08/18 01:04:04;;;;;;;0.40;0.40;;;;;;;19.21;83.43;96899.22;29395;230;64009;-90
2023/08/18 01:04:38;;;;;;;0.40;0.40;;;;;;;19.21;83.96;96893.72;29396;202;63004;-91
2023/08/18 01:05:12;;;;;;;0.40;0.40;;;;;;;19.19;84.13;96898.78;29396;266;63009;-92
2023/08/18 01:05:43;;;;;;;0.40;0.40;;;;;;;19.18;84.13;96897.16;29396;257;63004;-93
2023/08/18 01:06:17;;;;;;;0.40;0.40;;;;;;;19.18;84.27;96892.47;29396;202;63009;-91
2023/08/18 01:06:51;;;;;;;0.40;0.40;;;;;;;19.17;84.35;96899.13;29396;225;63004;-92
2023/08/18 01:07:36;;;;;;;0.40;0.40;;;;;;;19.16;84.10;96896.72;29396;203;63009;-91
2023/08/18 01:08:11;;;;;;;0.40;0.40;;;;;;;19.15;84.04;96895.91;29395;245;64005;-90
2023/08/18 01:08:46;;;;;;;0.35;0.35;;;;;;;19.13;84.15;96892.72;29395;232;64009;-92
2023/08/18 01:09:22;;;;;;;0.40;0.40;;;;;;;19.10;84.24;96893.41;29397;224;63010;-90
2023/08/18 01:09:57;;;;;;;0.40;0.40;;;;;;;19.09;84.84;96900.06;29397;209;63014;-92
2023/08/18 01:10:51;;;;;;;0.40;0.40;;;;;;;19.06;85.00;96903.50;29396;272;63005;-92
2023/08/18 01:12:13;;;;;;;0.40;0.40;;;;;;;19.01;84.81;96895.50;29397;199;63009;-91
2023/08/18 01:13:33;;;;;;;0.40;0.40;;;;;;;18.96;85.40;96904.00;29396;323;63004;-92
2023/08/18 01:14:42;;;;;;;0.40;0.40;;;;;;;18.96;85.10;96895.75;29394;232;64008;-91
2023/08/18 01:15:22;;;;;;;0.40;0.40;;;;;;;18.95;85.22;96899.63;29393;309;64005;-92
2023/08/18 01:16:00;;;;;;;0.40;0.40;;;;;;;18.94;85.25;96898.03;29439;250;63009;-90
2023/08/18 01:16:35;;;;;;;0.40;0.40;;;;;;;18.94;85.49;96895.28;29395;220;63005;-92
2023/08/18 01:17:23;;;;;;;0.45;0.45;;;;;;;18.93;85.25;96894.50;29395;204;63017;-89
2023/08/18 01:18:06;;;;;;;0.40;0.40;;;;;;;18.93;85.33;96890.94;29395;202;63005;-91
2023/08/18 01:18:39;;;;;;;0.40;0.40;;;;;;;18.92;85.60;96900.34;29393;233;64009;-92
2023/08/18 01:19:17;;;;;;;0.40;0.40;;;;;;;18.91;85.75;96896.78;29395;223;63004;-89
2023/08/18 01:19:53;;;;;;;0.40;0.40;;;;;;;18.89;85.61;96892.78;29395;207;63009;-92
2023/08/18 01:20:29;;;;;;;0.40;0.40;;;;;;;18.89;85.66;96898.28;29395;218;63004;-93
2023/08/18 01:21:09;;;;;;;0.40;0.40;;;;;;;18.88;85.51;96896.66;29395;222;63009;-90
2023/08/18 01:21:54;;;;;;;0.40;0.40;;;;;;;18.87;85.56;96895.06;29417;248;63004;-92
2023/08/18 01:22:27;;;;;;;0.40;0.40;;;;;;;18.86;85.80;96902.50;29393;253;64009;-90
2023/08/18 01:23:02;;;;;;;0.40;0.40;;;;;;;18.84;85.95;96898.50;29395;207;63005;-92
2023/08/18 01:23:41;;;;;;;0.40;0.40;;;;;;;18.84;85.76;96891.06;29395;198;63009;-92
2023/08/18 01:24:18;;;;;;;0.40;0.40;;;;;;;18.83;86.03;96896.91;29395;227;63005;-91
2023/08/18 01:25:05;;;;;;;0.40;0.40;;;;;;;18.81;86.26;96891.75;29393;249;64009;-92
2023/08/18 01:25:39;;;;;;;0.40;0.40;;;;;;;18.79;86.21;96893.25;29393;219;64005;-91
2023/08/18 01:26:10;;;;;;;0.30;0.30;;;;;;;18.78;86.14;96897.94;29395;211;63009;-93
2023/08/18 01:26:43;;;;;;;0.40;0.40;;;;;;;18.79;87.18;96894.03;29395;230;63004;-92
2023/08/18 01:27:16;;;;;;;0.40;0.40;;;;;;;18.80;86.56;96894.84;29395;241;63009;-90
2023/08/18 01:27:53;;;;;;;0.40;0.40;;;;;;;18.80;87.00;96894.84;29395;298;63004;-91
2023/08/18 01:28:27;;;;;;;0.40;0.40;;;;;;;18.80;86.66;96897.59;29395;218;63009;-91
2023/08/18 01:29:00;;;;;;;0.40;0.40;;;;;;;18.82;86.59;96898.03;29395;209;63004;-90
2023/08/18 01:29:34;;;;;;;0.40;0.40;;;;;;;18.82;85.96;96887.84;29393;206;64008;-91
2023/08/18 01:30:18;;;;;;;0.40;0.40;;;;;;;18.82;85.47;96896.09;29393;235;63994;-91
2023/08/18 01:30:55;;;;;;;0.40;0.40;;;;;;;18.84;84.98;96893.00;29395;248;63009;-92
2023/08/18 01:31:36;;;;;;;0.40;0.40;;;;;;;18.84;85.09;96884.75;29395;245;63005;-90
2023/08/18 01:32:11;;;;;;;0.40;0.40;;;;;;;18.83;85.33;96889.47;29395;285;63009;-91
2023/08/18 01:33:13;;;;;;;0.40;0.40;;;;;;;18.82;85.70;96892.56;29395;232;63005;-93
2023/08/18 01:34:08;;;;;;;0.40;0.40;;;;;;;18.79;85.58;96888.53;29395;210;63009;-90
2023/08/18 01:34:47;;;;;;;0.40;0.40;;;;;;;18.79;85.44;96893.25;29393;302;64004;-90
2023/08/18 01:35:27;;;;;;;0.40;0.40;;;;;;;18.78;85.53;96891.63;29393;220;64009;-93
2023/08/18 01:36:10;;;;;;;0.40;0.40;;;;;;;18.75;85.75;96896.69;29395;202;63004;-89
2023/08/18 01:36:46;;;;;;;0.40;0.40;;;;;;;18.74;85.68;96889.56;29395;225;63014;-92
2023/08/18 01:37:23;;;;;;;0.40;0.40;;;;;;;18.71;85.52;96893.00;29395;307;63004;-91
2023/08/18 01:37:59;;;;;;;0.40;0.40;;;;;;;18.70;85.54;96896.94;29395;218;63017;-92
2023/08/18 01:38:33;;;;;;;0.40;0.40;;;;;;;18.66;85.87;96895.22;29395;214;63005;-92
2023/08/18 01:39:11;;;;;;;0.40;0.40;;;;;;;18.62;86.58;96884.13;29395;218;63009;-91
2023/08/18 01:39:46;;;;;;;0.40;0.40;;;;;;;18.60;86.98;96891.09;29395;252;63005;-92
2023/08/18 01:40:45;;;;;;;0.32;0.32;;;;;;;18.57;86.64;96889.81;29394;227;64009;-90
2023/08/18 01:41:44;;;;;;;0.40;0.40;;;;;;;18.54;86.92;96885.00;29395;210;63005;-93
2023/08/18 01:42:17;;;;;;;0.40;0.40;;;;;;;18.54;87.11;96893.25;29394;231;64009;-91
2023/08/18 01:42:58;;;;;;;0.40;0.40;;;;;;;18.53;87.22;96890.84;29395;223;63004;-91
2023/08/18 01:43:45;;;;;;;0.40;0.40;;;;;;;18.54;86.84;96886.94;29393;237;64009;-92
2023/08/18 01:44:21;;;;;;;0.40;0.40;;;;;;;18.53;86.78;96902.62;29395;202;63004;-89
2023/08/18 01:45:03;;;;;;;0.40;0.40;;;;;;;18.50;87.04;96892.31;29395;293;63008;-92
2023/08/18 01:45:36;;;;;;;0.40;0.40;;;;;;;18.51;87.24;96896.66;29395;219;63005;-90
2023/08/18 01:46:09;;;;;;;0.40;0.40;;;;;;;18.51;87.18;96893.94;29395;203;63009;-92
2023/08/18 01:46:41;;;;;;;0.40;0.40;;;;;;;18.53;87.53;96896.34;29395;223;63005;-91
2023/08/18 01:47:14;;;;;;;0.40;0.40;;;;;;;18.54;87.12;96898.72;29395;356;63009;-91
2023/08/18 01:47:45;;;;;;;0.40;0.40;;;;;;;18.54;86.99;96897.94;29395;219;63010;-91
2023/08/18 01:48:17;;;;;;;0.40;0.40;;;;;;;18.54;87.02;96897.94;29395;214;63009;-90
2023/08/18 01:48:49;;;;;;;0.32;0.32;;;;;;;18.54;86.82;96904.22;29394;208;64005;-90
2023/08/18 01:49:24;;;;;;;0.40;0.40;;;;;;;18.55;86.82;96900.34;29395;261;63009;-91
2023/08/18 01:49:58;;;;;;;0.40;0.40;;;;;;;18.56;86.83;96899.19;29395;204;63004;-91
2023/08/18 01:50:29;;;;;;;0.32;0.32;;;;;;;18.56;86.83;96901.94;29395;232;63004;-90
2023/08/18 01:51:01;;;;;;;0.40;0.40;;;;;;;18.56;86.35;96899.19;29395;196;63004;-91
2023/08/18 01:51:36;;;;;;;0.40;0.40;;;;;;;18.55;86.06;96905.03;29395;213;63009;-93
2023/08/18 01:52:11;;;;;;;0.40;0.40;;;;;;;18.54;86.25;96895.19;29395;241;63004;-90
2023/08/18 01:52:49;;;;;;;0.40;0.40;;;;;;;18.54;86.20;96898.72;29394;295;64009;-91
2023/08/18 01:53:29;;;;;;;0.40;0.40;;;;;;;18.48;86.52;96883.63;29395;209;63005;-92
2023/08/18 01:54:05;;;;;;;0.40;0.40;;;;;;;18.55;85.98;96894.84;29394;219;64009;-91
2023/08/18 01:54:38;;;;;;;0.40;0.40;;;;;;;18.55;86.61;96900.34;29395;213;63005;-91
2023/08/18 01:55:13;;;;;;;0.40;0.40;;;;;;;18.55;86.09;96903.09;29395;207;63009;-90
2023/08/18 01:55:45;;;;;;;0.40;0.40;;;;;;;18.54;86.60;96889.69;29395;224;63005;-90
2023/08/18 01:56:17;;;;;;;0.40;0.40;;;;;;;18.54;86.15;96887.75;29395;284;63009;-93
2023/08/18 01:56:51;;;;;;;0.40;0.40;;;;;;;18.52;86.11;96892.78;29395;210;63004;-91
2023/08/18 01:57:24;;;;;;;0.40;0.40;;;;;;;18.50;86.30;96895.06;29395;221;63009;-92
2023/08/18 01:57:56;;;;;;;0.40;0.40;;;;;;;18.50;86.86;96892.31;29395;250;63004;-91
2023/08/18 01:58:29;;;;;;;0.30;0.30;;;;;;;18.52;86.65;96895.53;29395;216;63021;-91
2023/08/18 01:59:06;;;;;;;0.40;0.40;;;;;;;18.51;86.48;96893.13;29394;226;64004;-91
2023/08/18 01:59:39;;;;;;;0.40;0.40;;;;;;;18.50;86.23;96892.31;29394;224;64008;-91
2023/08/18 02:00:24;;;;;;;0.40;0.40;;;;;;;18.50;86.26;96886.03;29395;233;63005;-91
2023/08/18 02:01:05;;;;;;;0.40;0.40;;;;;;;18.48;86.43;96889.13;29395;224;63009;-93
2023/08/18 02:01:41;;;;;;;0.40;0.40;;;;;;;18.47;87.32;96893.00;29417;257;63009;-92
2023/08/18 02:02:14;;;;;;;0.30;0.30;;;;;;;18.43;87.21;96892.09;29395;222;63009;-91
2023/08/18 02:02:47;;;;;;;0.40;0.40;;;;;;;18.44;87.21;96890.94;29395;287;63005;-90
2023/08/18 02:03:24;;;;;;;0.40;0.40;;;;;;;18.45;87.26;96895.28;29395;205;63009;-91
2023/08/18 02:04:05;;;;;;;0.40;0.40;;;;;;;18.45;86.89;96895.28;29395;220;63004;-89
2023/08/18 02:04:38;;;;;;;0.40;0.40;;;;;;;18.44;86.96;96893.69;29417;214;63015;-89
2023/08/18 02:05:10;;;;;;;0.40;0.40;;;;;;;18.43;87.07;96898.37;29394;206;64004;-91
2023/08/18 02:05:47;;;;;;;0.40;0.40;;;;;;;18.42;87.00;96899.53;29395;238;63009;-92
2023/08/18 02:06:25;;;;;;;0.40;0.40;;;;;;;18.42;87.63;96890.47;29395;244;63009;-91
2023/08/18 02:06:58;;;;;;;0.40;0.40;;;;;;;18.42;87.53;96885.00;29395;205;63009;-91
2023/08/18 02:07:34;;;;;;;0.40;0.40;;;;;;;18.42;87.04;96895.97;29395;248;63005;-91
2023/08/18 02:08:08;;;;;;;0.40;0.40;;;;;;;18.42;86.89;96890.47;29395;260;63009;-91
2023/08/18 02:08:41;;;;;;;0.40;0.40;;;;;;;18.40;87.01;96887.28;29395;233;63005;-92
2023/08/18 02:09:15;;;;;;;0.40;0.40;;;;;;;18.40;87.62;96890.81;29395;267;63009;-91
2023/08/18 02:09:46;;;;;;;0.40;0.40;;;;;;;18.41;87.60;96888.88;29395;294;63005;-90
2023/08/18 02:10:25;;;;;;;0.40;0.40;;;;;;;18.40;87.21;96890.03;29394;248;64009;-92
2023/08/18 02:11:04;;;;;;;0.40;0.40;;;;;;;18.40;87.30;96893.56;29417;219;63004;-90
2023/08/18 02:11:46;;;;;;;0.40;0.40;;;;;;;18.38;87.20;96889.56;29395;258;63009;-90
2023/08/18 02:12:30;;;;;;;0.40;0.40;;;;;;;18.36;87.52;96886.38;29395;207;63004;-91
2023/08/18 02:13:05;;;;;;;0.40;0.40;;;;;;;18.37;87.44;96888.75;29395;257;63009;-91
2023/08/18 02:13:40;;;;;;;0.40;0.40;;;;;;;18.37;87.24;96887.97;29395;199;63004;-90
2023/08/18 02:14:13;;;;;;;0.40;0.40;;;;;;;18.36;86.75;96883.63;29395;269;63008;-89
2023/08/18 02:14:44;;;;;;;0.40;0.40;;;;;;;18.36;86.88;96883.63;29395;267;63005;-88
2023/08/18 02:15:25;;;;;;;0.40;0.40;;;;;;;18.38;86.62;96878.56;29395;210;63009;-90
2023/08/18 02:16:07;;;;;;;0.40;0.40;;;;;;;18.37;86.44;96883.28;29394;230;63997;-90
2023/08/18 02:16:41;;;;;;;0.40;0.40;;;;;;;18.37;86.23;96882.47;29417;378;63009;-89
2023/08/18 02:17:14;;;;;;;0.40;0.40;;;;;;;18.40;86.47;96881.78;29395;198;63005;-90
2023/08/18 02:17:48;;;;;;;0.40;0.40;;;;;;;18.39;85.96;96882.94;29395;197;63009;-91
2023/08/18 02:18:20;;;;;;;0.40;0.40;;;;;;;18.41;85.50;96883.37;29395;196;63005;-91
2023/08/18 02:19:01;;;;;;;0.40;0.40;;;;;;;18.40;85.27;96877.09;29395;198;63009;-90
2023/08/18 02:19:36;;;;;;;0.40;0.40;;;;;;;18.38;85.74;96884.88;29416;213;64004;-91
2023/08/18 02:20:11;;;;;;;0.40;0.40;;;;;;;18.36;85.61;96876.19;29395;248;63009;-92
2023/08/18 02:20:42;;;;;;;0.40;0.40;;;;;;;18.35;86.15;96873.78;29395;254;63004;-90
2023/08/18 02:21:15;;;;;;;0.40;0.40;;;;;;;18.36;85.97;96875.41;29395;199;63008;-90
2023/08/18 02:21:48;;;;;;;0.40;0.40;;;;;;;18.34;86.11;96873.00;29395;203;63004;-91
2023/08/18 02:22:23;;;;;;;0.40;0.40;;;;;;;18.35;85.96;96871.03;29395;202;63009;-89
2023/08/18 02:22:55;;;;;;;0.40;0.40;;;;;;;18.33;85.82;96873.34;29395;206;63005;-92
2023/08/18 02:23:26;;;;;;;0.40;0.40;;;;;;;18.32;86.42;96878.03;29394;263;64009;-92
2023/08/18 02:23:59;;;;;;;0.40;0.40;;;;;;;18.33;86.06;96876.09;29395;202;63005;-90
2023/08/18 02:24:32;;;;;;;0.40;0.40;;;;;;;18.33;85.96;96881.56;29394;197;64009;-90
2023/08/18 02:25:07;;;;;;;0.40;0.40;;;;;;;18.32;85.93;96875.28;29394;226;64005;-92
2023/08/18 02:25:38;;;;;;;0.40;0.40;;;;;;;18.32;85.66;96869.78;29395;219;63015;-89
2023/08/18 02:26:12;;;;;;;0.40;0.40;;;;;;;18.33;86.04;96868.66;29395;276;63004;-90
2023/08/18 02:26:44;;;;;;;0.32;0.32;;;;;;;18.35;85.57;96877.34;29395;216;63009;-90
2023/08/18 02:27:18;;;;;;;0.40;0.40;;;;;;;18.36;85.53;96869.91;29395;235;63004;-92
2023/08/18 02:27:51;;;;;;;0.40;0.40;;;;;;;18.36;85.17;96875.41;29395;218;63009;-90
2023/08/18 02:28:22;;;;;;;0.40;0.40;;;;;;;18.35;85.46;96879.28;29395;211;63004;-91
2023/08/18 02:28:53;;;;;;;0.40;0.40;;;;;;;18.36;85.25;96875.41;29395;202;63008;-92
2023/08/18 02:29:28;;;;;;;0.40;0.40;;;;;;;18.34;84.79;96880.44;29395;261;63005;-90
2023/08/18 02:30:05;;;;;;;0.40;0.40;;;;;;;18.33;85.58;96876.87;29394;211;64009;-89
2023/08/18 02:30:38;;;;;;;0.40;0.40;;;;;;;18.32;85.62;96874.47;29395;202;63005;-90
2023/08/18 02:31:10;;;;;;;0.40;0.40;;;;;;;18.30;85.65;96876.75;29395;210;63009;-93
2023/08/18 02:31:43;;;;;;;0.40;0.40;;;;;;;18.28;85.43;96879.84;29395;227;63005;-91
2023/08/18 02:32:18;;;;;;;0.40;0.40;;;;;;;18.26;85.32;96878.59;29395;213;63009;-90
2023/08/18 02:32:50;;;;;;;0.40;0.40;;;;;;;18.24;85.82;96878.94;29395;255;63005;-90
2023/08/18 02:33:22;;;;;;;0.40;0.40;;;;;;;18.22;86.07;96881.22;29395;251;63009;-90
2023/08/18 02:33:55;;;;;;;0.40;0.40;;;;;;;18.26;85.99;96878.59;29395;248;63004;-90
2023/08/18 02:34:27;;;;;;;0.40;0.40;;;;;;;18.26;85.59;96875.84;29394;252;64002;-90
2023/08/18 02:34:58;;;;;;;0.40;0.40;;;;;;;18.26;86.08;96884.09;29394;208;64004;-91
2023/08/18 02:35:31;;;;;;;0.40;0.40;;;;;;;18.27;86.19;96875.50;29395;223;63009;-91
2023/08/18 02:36:04;;;;;;;0.40;0.40;;;;;;;18.26;86.18;96881.34;29395;210;63010;-89
2023/08/18 02:36:36;;;;;;;0.40;0.40;;;;;;;18.30;85.49;96879.50;29395;219;63008;-91
2023/08/18 02:37:08;;;;;;;0.40;0.40;;;;;;;18.29;85.71;96880.66;29395;203;63005;-90
2023/08/18 02:37:42;;;;;;;0.37;0.37;;;;;;;18.30;85.88;96882.25;29395;258;63009;-90
2023/08/18 02:38:15;;;;;;;0.40;0.40;;;;;;;18.28;85.52;96884.53;29394;234;64005;-93
2023/08/18 02:38:50;;;;;;;0.40;0.40;;;;;;;18.28;85.55;96879.06;29395;203;63009;-90
2023/08/18 02:39:23;;;;;;;0.40;0.40;;;;;;;18.26;85.92;96879.41;29395;250;64005;-90
2023/08/18 02:40:03;;;;;;;0.40;0.40;;;;;;;18.25;86.07;96880.53;29395;214;63009;-91
2023/08/18 02:40:44;;;;;;;0.40;0.40;;;;;;;18.24;86.44;96880.88;29395;234;63005;-90
2023/08/18 02:41:41;;;;;;;0.40;0.40;;;;;;;18.21;86.15;96876.06;29395;222;63016;-90
2023/08/18 02:42:16;;;;;;;0.40;0.40;;;;;;;18.20;86.18;96885.44;29395;224;63004;-90
2023/08/18 02:42:49;;;;;;;0.40;0.40;;;;;;;18.17;86.62;96870.47;29395;197;63009;-92
2023/08/18 02:43:28;;;;;;;0.40;0.40;;;;;;;18.16;86.60;96877.09;29395;240;63000;-90
2023/08/18 02:44:04;;;;;;;0.40;0.40;;;;;;;18.17;87.07;96880.62;29394;214;64008;-91
2023/08/18 02:44:36;;;;;;;0.40;0.40;;;;;;;18.15;86.76;96872.75;29394;198;64005;-91
2023/08/18 02:45:11;;;;;;;0.40;0.40;;;;;;;18.13;87.10;96872.28;29395;255;63009;-93
2023/08/18 02:46:02;;;;;;;0.40;0.40;;;;;;;18.12;87.29;96875.37;29395;237;63012;-89
2023/08/18 02:46:34;;;;;;;0.40;0.40;;;;;;;18.05;87.07;96868.50;29395;215;63009;-92
2023/08/18 02:47:06;;;;;;;0.40;0.40;;;;;;;18.01;87.57;96870.34;29395;322;63005;-91
2023/08/18 02:47:39;;;;;;;0.40;0.40;;;;;;;17.98;87.91;96871.03;29395;197;63009;-91
2023/08/18 02:48:12;;;;;;;0.37;0.37;;;;;;;17.95;87.69;96868.97;29395;209;63005;-90
2023/08/18 02:48:44;;;;;;;0.40;0.40;;;;;;;17.96;88.86;96867.00;29395;216;63009;-90
2023/08/18 02:49:18;;;;;;;0.32;0.32;;;;;;;17.92;88.86;96866.88;29395;252;63004;-92
2023/08/18 02:49:51;;;;;;;0.30;0.30;;;;;;;17.90;90.01;96868.37;29394;196;64009;-90
2023/08/18 02:50:30;;;;;;;0.37;0.37;;;;;;;17.86;90.01;96868.25;29395;220;63004;-90
2023/08/18 02:51:09;;;;;;;0.40;0.40;;;;;;;17.84;89.85;96870.53;29395;207;63009;-90
2023/08/18 02:51:41;;;;;;;0.40;0.40;;;;;;;17.82;89.67;96867.31;29395;197;63004;-89
2023/08/18 02:52:12;;;;;;;0.40;0.40;;;;;;;17.84;90.17;96872.47;29395;196;63009;-88
2023/08/18 02:52:43;;;;;;;0.40;0.40;;;;;;;17.85;90.38;96866.63;29395;251;63005;-91
2023/08/18 02:53:15;;;;;;;0.40;0.40;;;;;;;17.88;90.17;96868.72;29395;216;63009;-89
2023/08/18 02:53:50;;;;;;;0.40;0.40;;;;;;;17.89;90.12;96862.06;29395;234;63005;-92